sensor_id;sensor_type;location;lat;lon;timestamp;temperature;humidity
63260;DHT22;49390;51.380;0.098;2022-11-04T00:01:53;9.50;99.90
63260;DHT22;49390;51.380;0.098;2022-11-04T00:04:23;9.50;99.90
63260;DHT22;49390;51.380;0.098;2022-11-04T00:06:52;9.50;99.90
63260;DHT22;49390;51.380;0.098;2022-11-04T00:09:23;9.50;99.90
63260;DHT22;49390;51.380;0.098;2022-11-04T00:11:53;9.50;99.90
63260;DHT22;49390;51.380;0.098;2022-11-04T00:14:39;9.50;99.90
63260;DHT22;49390;51.380;0.098;2022-11-04T00:17:10;9.50;99.90
63260;DHT22;49390;51.380;0.098;2022-11-04T00:19:52;9.50;99.90
63260;DHT22;49390;51.380;0.098;2022-11-04T00:22:40;9.50;99.90
63260;DHT22;49390;51.380;0.098;2022-11-04T00:25:27;9.50;99.90
63260;DHT22;49390;51.380;0.098;2022-11-04T00:28:18;9.60;99.90
63260;DHT22;49390;51.380;0.098;2022-11-04T00:31:06;9.60;99.90
63260;DHT22;49390;51.380;0.098;2022-11-04T00:33:55;9.60;99.90
63260;DHT22;49390;51.380;0.098;2022-11-04T00:36:24;9.60;99.90
63260;DHT22;49390;51.380;0.098;2022-11-04T00:38:53;9.60;99.90
63260;DHT22;49390;51.380;0.098;2022-11-04T00:41:21;9.60;99.90
63260;DHT22;49390;51.380;0.098;2022-11-04T00:44:02;9.70;99.90
63260;DHT22;49390;51.380;0.098;2022-11-04T00:46:31;9.70;99.90
63260;DHT22;49390;51.380;0.098;2022-11-04T00:49:00;9.60;99.90
63260;DHT22;49390;51.380;0.098;2022-11-04T00:51:28;9.70;99.90
63260;DHT22;49390;51.380;0.098;2022-11-04T00:53:56;9.70;99.90
63260;DHT22;49390;51.380;0.098;2022-11-04T00:56:28;9.70;99.90
63260;DHT22;49390;51.380;0.098;2022-11-04T00:58:58;9.60;99.90
63260;DHT22;49390;51.380;0.098;2022-11-04T01:01:26;9.70;99.90
63260;DHT22;49390;51.380;0.098;2022-11-04T01:03:55;9.70;99.90
63260;DHT22;49390;51.380;0.098;2022-11-04T01:06:26;9.60;99.90
63260;DHT22;49390;51.380;0.098;2022-11-04T01:08:56;9.60;99.90
63260;DHT22;49390;51.380;0.098;2022-11-04T01:11:26;9.60;99.90
63260;DHT22;49390;51.380;0.098;2022-11-04T01:13:56;9.60;99.90
63260;DHT22;49390;51.380;0.098;2022-11-04T01:16:25;9.60;99.90
63260;DHT22;49390;51.380;0.098;2022-11-04T01:18:59;9.60;99.90
63260;DHT22;49390;51.380;0.098;2022-11-04T01:21:28;9.60;99.90
63260;DHT22;49390;51.380;0.098;2022-11-04T01:23:56;9.50;99.90
63260;DHT22;49390;51.380;0.098;2022-11-04T01:26:26;9.60;99.90
63260;DHT22;49390;51.380;0.098;2022-11-04T01:28:56;9.60;99.90
63260;DHT22;49390;51.380;0.098;2022-11-04T01:31:26;9.60;99.90
63260;DHT22;49390;51.380;0.098;2022-11-04T01:33:55;9.60;99.90
63260;DHT22;49390;51.380;0.098;2022-11-04T01:36:24;9.60;99.90
63260;DHT22;49390;51.380;0.098;2022-11-04T01:38:54;9.60;99.90
63260;DHT22;49390;51.380;0.098;2022-11-04T01:41:27;9.60;99.90
63260;DHT22;49390;51.380;0.098;2022-11-04T01:43:57;9.60;99.90
63260;DHT22;49390;51.380;0.098;2022-11-04T01:51:50;9.50;99.90
63260;DHT22;49390;51.380;0.098;2022-11-04T01:54:21;9.50;99.90
63260;DHT22;49390;51.380;0.098;2022-11-04T01:56:50;9.50;99.90
63260;DHT22;49390;51.380;0.098;2022-11-04T01:59:25;9.50;99.90
63260;DHT22;49390;51.380;0.098;2022-11-04T02:01:55;9.50;99.90
63260;DHT22;49390;51.380;0.098;2022-11-04T02:04:23;9.50;99.90
63260;DHT22;49390;51.380;0.098;2022-11-04T02:06:56;9.50;99.90
63260;DHT22;49390;51.380;0.098;2022-11-04T02:09:26;9.50;99.90
63260;DHT22;49390;51.380;0.098;2022-11-04T02:11:56;9.50;99.90
63260;DHT22;49390;51.380;0.098;2022-11-04T02:14:43;9.50;99.90
63260;DHT22;49390;51.380;0.098;2022-11-04T02:23:03;9.50;99.90
63260;DHT22;49390;51.380;0.098;2022-11-04T02:25:52;9.50;99.90
63260;DHT22;49390;51.380;0.098;2022-11-04T02:31:57;9.50;99.90
63260;DHT22;49390;51.380;0.098;2022-11-04T02:42:52;9.50;99.90
63260;DHT22;49390;51.380;0.098;2022-11-04T02:48:35;9.60;99.90
63260;DHT22;49390;51.380;0.098;2022-11-04T02:51:28;9.60;99.90
63260;DHT22;49390;51.380;0.098;2022-11-04T02:56:35;9.60;99.90
63260;DHT22;49390;51.380;0.098;2022-11-04T02:59:07;9.60;99.90
63260;DHT22;49390;51.380;0.098;2022-11-04T03:01:40;9.60;99.90
63260;DHT22;49390;51.380;0.098;2022-11-04T03:04:18;9.60;99.90
63260;DHT22;49390;51.380;0.098;2022-11-04T03:06:49;9.60;99.90
63260;DHT22;49390;51.380;0.098;2022-11-04T03:09:21;9.60;99.90
63260;DHT22;49390;51.380;0.098;2022-11-04T03:11:56;9.60;99.90
63260;DHT22;49390;51.380;0.098;2022-11-04T03:14:35;9.50;99.90
63260;DHT22;49390;51.380;0.098;2022-11-04T03:17:18;9.60;99.90
63260;DHT22;49390;51.380;0.098;2022-11-04T03:19:57;9.50;99.90
63260;DHT22;49390;51.380;0.098;2022-11-04T03:22:33;9.50;99.90
63260;DHT22;49390;51.380;0.098;2022-11-04T03:25:04;9.50;99.90
63260;DHT22;49390;51.380;0.098;2022-11-04T03:27:48;9.50;99.90
63260;DHT22;49390;51.380;0.098;2022-11-04T03:30:20;9.50;99.90
63260;DHT22;49390;51.380;0.098;2022-11-04T03:33:10;9.40;99.90
63260;DHT22;49390;51.380;0.098;2022-11-04T03:35:40;9.40;99.90
63260;DHT22;49390;51.380;0.098;2022-11-04T03:38:09;9.40;99.90
63260;DHT22;49390;51.380;0.098;2022-11-04T03:40:36;9.40;99.90
63260;DHT22;49390;51.380;0.098;2022-11-04T03:43:15;9.40;99.90
63260;DHT22;49390;51.380;0.098;2022-11-04T03:45:44;9.40;99.90
63260;DHT22;49390;51.380;0.098;2022-11-04T03:48:13;9.40;99.90
63260;DHT22;49390;51.380;0.098;2022-11-04T03:50:43;9.30;99.90
63260;DHT22;49390;51.380;0.098;2022-11-04T03:53:14;9.30;99.90
63260;DHT22;49390;51.380;0.098;2022-11-04T03:58:51;9.30;99.90
63260;DHT22;49390;51.380;0.098;2022-11-04T04:06:43;9.10;99.90
63260;DHT22;49390;51.380;0.098;2022-11-04T04:14:50;9.10;99.90
63260;DHT22;49390;51.380;0.098;2022-11-04T04:17:29;9.10;99.90
63260;DHT22;49390;51.380;0.098;2022-11-04T04:20:05;9.10;99.90
63260;DHT22;49390;51.380;0.098;2022-11-04T04:22:57;9.10;99.90
63260;DHT22;49390;51.380;0.098;2022-11-04T04:25:29;9.00;99.90
63260;DHT22;49390;51.380;0.098;2022-11-04T04:28:18;9.00;99.90
63260;DHT22;49390;51.380;0.098;2022-11-04T04:30:47;9.00;99.90
63260;DHT22;49390;51.380;0.098;2022-11-04T04:33:17;9.00;99.90
63260;DHT22;49390;51.380;0.098;2022-11-04T04:35:49;9.00;99.90
63260;DHT22;49390;51.380;0.098;2022-11-04T04:38:30;8.90;99.90
63260;DHT22;49390;51.380;0.098;2022-11-04T04:41:25;8.90;99.90
63260;DHT22;49390;51.380;0.098;2022-11-04T04:44:26;8.90;99.90
63260;DHT22;49390;51.380;0.098;2022-11-04T04:47:15;8.90;99.90
63260;DHT22;49390;51.380;0.098;2022-11-04T04:49:57;8.80;99.90
63260;DHT22;49390;51.380;0.098;2022-11-04T04:52:30;8.80;99.90
63260;DHT22;49390;51.380;0.098;2022-11-04T04:54:59;8.80;99.90
63260;DHT22;49390;51.380;0.098;2022-11-04T04:57:27;8.80;99.90
63260;DHT22;49390;51.380;0.098;2022-11-04T04:59:55;8.80;99.90
63260;DHT22;49390;51.380;0.098;2022-11-04T05:02:23;8.80;99.90
63260;DHT22;49390;51.380;0.098;2022-11-04T05:04:51;8.70;99.90
63260;DHT22;49390;51.380;0.098;2022-11-04T05:07:19;8.70;99.90
63260;DHT22;49390;51.380;0.098;2022-11-04T05:09:48;8.70;99.90
63260;DHT22;49390;51.380;0.098;2022-11-04T05:12:17;8.70;99.90
63260;DHT22;49390;51.380;0.098;2022-11-04T05:14:45;8.70;99.90
63260;DHT22;49390;51.380;0.098;2022-11-04T05:17:13;8.70;99.90
63260;DHT22;49390;51.380;0.098;2022-11-04T05:19:42;8.70;99.90
63260;DHT22;49390;51.380;0.098;2022-11-04T05:22:10;8.60;99.90
63260;DHT22;49390;51.380;0.098;2022-11-04T05:24:39;8.60;99.90
63260;DHT22;49390;51.380;0.098;2022-11-04T05:27:07;8.60;99.90
63260;DHT22;49390;51.380;0.098;2022-11-04T05:29:38;8.60;99.90
63260;DHT22;49390;51.380;0.098;2022-11-04T05:32:05;8.50;99.90
63260;DHT22;49390;51.380;0.098;2022-11-04T05:34:35;8.50;99.90
63260;DHT22;49390;51.380;0.098;2022-11-04T05:37:02;8.50;99.90
63260;DHT22;49390;51.380;0.098;2022-11-04T05:39:32;8.50;99.90
63260;DHT22;49390;51.380;0.098;2022-11-04T05:42:00;8.40;99.90
63260;DHT22;49390;51.380;0.098;2022-11-04T05:44:29;8.40;99.90
63260;DHT22;49390;51.380;0.098;2022-11-04T05:46:57;8.40;99.90
63260;DHT22;49390;51.380;0.098;2022-11-04T05:49:25;8.40;99.90
63260;DHT22;49390;51.380;0.098;2022-11-04T05:51:54;8.40;99.90
63260;DHT22;49390;51.380;0.098;2022-11-04T05:54:22;8.30;99.90
63260;DHT22;49390;51.380;0.098;2022-11-04T05:56:51;8.30;99.90
63260;DHT22;49390;51.380;0.098;2022-11-04T05:59:19;8.30;99.90
63260;DHT22;49390;51.380;0.098;2022-11-04T06:01:47;8.30;99.90
63260;DHT22;49390;51.380;0.098;2022-11-04T06:04:17;8.20;99.90
63260;DHT22;49390;51.380;0.098;2022-11-04T06:06:48;8.20;99.90
63260;DHT22;49390;51.380;0.098;2022-11-04T06:09:16;8.20;99.90
63260;DHT22;49390;51.380;0.098;2022-11-04T06:11:45;8.20;99.90
63260;DHT22;49390;51.380;0.098;2022-11-04T06:14:13;8.10;99.90
63260;DHT22;49390;51.380;0.098;2022-11-04T06:16:45;8.10;99.90
63260;DHT22;49390;51.380;0.098;2022-11-04T06:19:13;8.10;99.90
63260;DHT22;49390;51.380;0.098;2022-11-04T06:21:43;8.10;99.90
63260;DHT22;49390;51.380;0.098;2022-11-04T06:24:13;8.10;99.90
63260;DHT22;49390;51.380;0.098;2022-11-04T06:26:40;8.10;99.90
63260;DHT22;49390;51.380;0.098;2022-11-04T06:29:09;8.00;99.90
63260;DHT22;49390;51.380;0.098;2022-11-04T06:31:37;8.10;99.90
63260;DHT22;49390;51.380;0.098;2022-11-04T06:34:06;8.00;99.90
63260;DHT22;49390;51.380;0.098;2022-11-04T06:36:34;8.00;99.90
63260;DHT22;49390;51.380;0.098;2022-11-04T06:39:04;8.00;99.90
63260;DHT22;49390;51.380;0.098;2022-11-04T06:41:32;8.00;99.90
63260;DHT22;49390;51.380;0.098;2022-11-04T06:44:01;8.00;99.90
63260;DHT22;49390;51.380;0.098;2022-11-04T06:46:36;8.00;99.90
63260;DHT22;49390;51.380;0.098;2022-11-04T06:49:09;8.00;99.90
63260;DHT22;49390;51.380;0.098;2022-11-04T06:51:37;7.90;99.90
63260;DHT22;49390;51.380;0.098;2022-11-04T06:54:06;7.90;99.90
63260;DHT22;49390;51.380;0.098;2022-11-04T06:56:36;7.90;99.90
63260;DHT22;49390;51.380;0.098;2022-11-04T06:59:05;7.90;99.90
63260;DHT22;49390;51.380;0.098;2022-11-04T07:01:35;7.90;99.90
63260;DHT22;49390;51.380;0.098;2022-11-04T07:04:04;7.80;99.90
63260;DHT22;49390;51.380;0.098;2022-11-04T07:06:32;7.80;99.90
63260;DHT22;49390;51.380;0.098;2022-11-04T07:09:02;7.80;99.90
63260;DHT22;49390;51.380;0.098;2022-11-04T07:11:31;7.80;99.90
63260;DHT22;49390;51.380;0.098;2022-11-04T07:14:02;7.80;99.90
63260;DHT22;49390;51.380;0.098;2022-11-04T07:16:30;7.70;99.90
63260;DHT22;49390;51.380;0.098;2022-11-04T07:18:58;7.70;99.90
63260;DHT22;49390;51.380;0.098;2022-11-04T07:21:26;7.70;99.90
63260;DHT22;49390;51.380;0.098;2022-11-04T07:23:54;7.70;99.90
63260;DHT22;49390;51.380;0.098;2022-11-04T07:26:22;7.70;99.90
63260;DHT22;49390;51.380;0.098;2022-11-04T07:28:51;7.70;99.90
63260;DHT22;49390;51.380;0.098;2022-11-04T07:31:19;7.70;99.90
63260;DHT22;49390;51.380;0.098;2022-11-04T07:33:48;7.60;99.90
63260;DHT22;49390;51.380;0.098;2022-11-04T07:36:18;7.60;99.90
63260;DHT22;49390;51.380;0.098;2022-11-04T07:38:47;7.60;99.90
63260;DHT22;49390;51.380;0.098;2022-11-04T07:41:16;7.60;99.90
63260;DHT22;49390;51.380;0.098;2022-11-04T07:43:49;7.60;99.90
63260;DHT22;49390;51.380;0.098;2022-11-04T07:46:18;7.60;99.90
63260;DHT22;49390;51.380;0.098;2022-11-04T07:48:47;7.60;99.90
63260;DHT22;49390;51.380;0.098;2022-11-04T07:51:17;7.60;99.90
63260;DHT22;49390;51.380;0.098;2022-11-04T07:53:46;7.60;99.90
63260;DHT22;49390;51.380;0.098;2022-11-04T07:56:14;7.60;99.90
63260;DHT22;49390;51.380;0.098;2022-11-04T07:58:43;7.70;99.90
63260;DHT22;49390;51.380;0.098;2022-11-04T08:01:14;7.70;99.90
63260;DHT22;49390;51.380;0.098;2022-11-04T08:03:43;7.70;99.90
63260;DHT22;49390;51.380;0.098;2022-11-04T08:06:14;7.70;99.90
63260;DHT22;49390;51.380;0.098;2022-11-04T08:08:43;7.80;99.90
63260;DHT22;49390;51.380;0.098;2022-11-04T08:11:15;7.80;99.90
63260;DHT22;49390;51.380;0.098;2022-11-04T08:13:45;7.80;99.90
63260;DHT22;49390;51.380;0.098;2022-11-04T08:16:16;7.90;99.90
63260;DHT22;49390;51.380;0.098;2022-11-04T08:18:45;7.90;99.90
63260;DHT22;49390;51.380;0.098;2022-11-04T08:21:13;7.90;99.90
63260;DHT22;49390;51.380;0.098;2022-11-04T08:23:42;7.90;99.90
63260;DHT22;49390;51.380;0.098;2022-11-04T08:26:15;7.90;99.90
63260;DHT22;49390;51.380;0.098;2022-11-04T08:28:45;8.00;99.90
63260;DHT22;49390;51.380;0.098;2022-11-04T08:31:15;8.00;99.90
63260;DHT22;49390;51.380;0.098;2022-11-04T08:33:44;8.00;99.90
63260;DHT22;49390;51.380;0.098;2022-11-04T08:38:44;8.10;99.90
63260;DHT22;49390;51.380;0.098;2022-11-04T08:41:14;8.10;99.90
63260;DHT22;49390;51.380;0.098;2022-11-04T08:43:43;8.20;99.90
63260;DHT22;49390;51.380;0.098;2022-11-04T08:46:12;8.20;99.90
63260;DHT22;49390;51.380;0.098;2022-11-04T08:48:41;8.30;99.90
63260;DHT22;49390;51.380;0.098;2022-11-04T08:51:17;8.30;99.90
63260;DHT22;49390;51.380;0.098;2022-11-04T08:53:45;8.40;99.90
63260;DHT22;49390;51.380;0.098;2022-11-04T08:56:21;8.50;99.90
63260;DHT22;49390;51.380;0.098;2022-11-04T08:58:51;8.60;99.90
63260;DHT22;49390;51.380;0.098;2022-11-04T09:01:20;8.80;99.90
63260;DHT22;49390;51.380;0.098;2022-11-04T09:03:50;8.90;99.90
63260;DHT22;49390;51.380;0.098;2022-11-04T09:06:24;9.00;99.90
63260;DHT22;49390;51.380;0.098;2022-11-04T09:08:53;9.10;99.90
63260;DHT22;49390;51.380;0.098;2022-11-04T09:11:31;9.20;99.90
63260;DHT22;49390;51.380;0.098;2022-11-04T09:14:00;9.20;99.90
63260;DHT22;49390;51.380;0.098;2022-11-04T09:16:34;9.30;99.90
63260;DHT22;49390;51.380;0.098;2022-11-04T09:19:03;9.40;99.90
63260;DHT22;49390;51.380;0.098;2022-11-04T09:21:32;9.40;99.90
63260;DHT22;49390;51.380;0.098;2022-11-04T09:24:00;9.50;99.90
63260;DHT22;49390;51.380;0.098;2022-11-04T09:26:28;9.50;99.90
63260;DHT22;49390;51.380;0.098;2022-11-04T09:28:57;9.70;99.90
63260;DHT22;49390;51.380;0.098;2022-11-04T09:31:28;9.70;99.90
63260;DHT22;49390;51.380;0.098;2022-11-04T09:33:57;9.80;99.90
63260;DHT22;49390;51.380;0.098;2022-11-04T09:36:25;9.80;99.90
63260;DHT22;49390;51.380;0.098;2022-11-04T09:38:53;9.90;99.90
63260;DHT22;49390;51.380;0.098;2022-11-04T09:44:42;10.00;99.90
63260;DHT22;49390;51.380;0.098;2022-11-04T09:47:32;10.10;99.90
63260;DHT22;49390;51.380;0.098;2022-11-04T09:50:07;10.10;99.90
63260;DHT22;49390;51.380;0.098;2022-11-04T09:52:47;10.20;99.90
63260;DHT22;49390;51.380;0.098;2022-11-04T09:55:30;10.20;99.90
63260;DHT22;49390;51.380;0.098;2022-11-04T09:57:59;10.30;99.90
63260;DHT22;49390;51.380;0.098;2022-11-04T10:00:30;10.30;99.90
63260;DHT22;49390;51.380;0.098;2022-11-04T10:09:03;10.50;99.90
63260;DHT22;49390;51.380;0.098;2022-11-04T10:11:50;10.60;99.90
63260;DHT22;49390;51.380;0.098;2022-11-04T10:14:45;10.60;99.90
63260;DHT22;49390;51.380;0.098;2022-11-04T10:20:41;10.80;99.90
63260;DHT22;49390;51.380;0.098;2022-11-04T10:26:40;10.90;99.90
63260;DHT22;49390;51.380;0.098;2022-11-04T10:29:22;11.00;99.90
63260;DHT22;49390;51.380;0.098;2022-11-04T10:31:51;11.00;99.90
63260;DHT22;49390;51.380;0.098;2022-11-04T10:34:30;11.10;99.90
63260;DHT22;49390;51.380;0.098;2022-11-04T10:37:01;11.20;99.90
63260;DHT22;49390;51.380;0.098;2022-11-04T10:39:34;11.20;99.90
63260;DHT22;49390;51.380;0.098;2022-11-04T10:42:04;11.30;99.90
63260;DHT22;49390;51.380;0.098;2022-11-04T10:44:34;11.40;99.90
63260;DHT22;49390;51.380;0.098;2022-11-04T10:47:30;11.40;99.90
63260;DHT22;49390;51.380;0.098;2022-11-04T10:50:19;11.50;99.90
63260;DHT22;49390;51.380;0.098;2022-11-04T10:53:16;11.60;99.90
63260;DHT22;49390;51.380;0.098;2022-11-04T10:56:02;11.60;99.90
63260;DHT22;49390;51.380;0.098;2022-11-04T10:58:35;11.70;99.90
63260;DHT22;49390;51.380;0.098;2022-11-04T11:01:28;11.70;99.90
63260;DHT22;49390;51.380;0.098;2022-11-04T11:03:58;11.90;99.90
63260;DHT22;49390;51.380;0.098;2022-11-04T11:06:31;11.90;99.90
63260;DHT22;49390;51.380;0.098;2022-11-04T11:09:20;12.00;99.90
63260;DHT22;49390;51.380;0.098;2022-11-04T11:11:53;12.20;99.90
63260;DHT22;49390;51.380;0.098;2022-11-04T11:17:15;12.40;99.90
63260;DHT22;49390;51.380;0.098;2022-11-04T11:19:47;12.40;99.90
63260;DHT22;49390;51.380;0.098;2022-11-04T11:25:31;12.50;99.90
63260;DHT22;49390;51.380;0.098;2022-11-04T11:28:00;12.50;99.90
63260;DHT22;49390;51.380;0.098;2022-11-04T11:33:05;12.70;99.90
63260;DHT22;49390;51.380;0.098;2022-11-04T11:35:39;12.70;99.90
63260;DHT22;49390;51.380;0.098;2022-11-04T11:40:45;12.90;99.90
63260;DHT22;49390;51.380;0.098;2022-11-04T11:43:37;12.90;99.90
63260;DHT22;49390;51.380;0.098;2022-11-04T11:46:07;13.00;99.90
63260;DHT22;49390;51.380;0.098;2022-11-04T11:48:50;13.10;99.90
63260;DHT22;49390;51.380;0.098;2022-11-04T11:51:25;13.20;99.90
63260;DHT22;49390;51.380;0.098;2022-11-04T11:56:53;13.30;99.90
63260;DHT22;49390;51.380;0.098;2022-11-04T12:00:00;13.20;99.90
63260;DHT22;49390;51.380;0.098;2022-11-04T12:14:49;13.40;99.90
63260;DHT22;49390;51.380;0.098;2022-11-04T12:18:01;13.40;99.90
63260;DHT22;49390;51.380;0.098;2022-11-04T12:20:46;13.40;99.90
63260;DHT22;49390;51.380;0.098;2022-11-04T12:34:24;13.60;99.90
63260;DHT22;49390;51.380;0.098;2022-11-04T12:37:24;13.60;99.90
63260;DHT22;49390;51.380;0.098;2022-11-04T12:40:30;13.70;99.90
63260;DHT22;49390;51.380;0.098;2022-11-04T12:43:17;13.70;99.90
63260;DHT22;49390;51.380;0.098;2022-11-04T12:51:51;13.80;99.90
63260;DHT22;49390;51.380;0.098;2022-11-04T12:54:36;13.90;99.90
63260;DHT22;49390;51.380;0.098;2022-11-04T12:59:55;13.90;99.90
63260;DHT22;49390;51.380;0.098;2022-11-04T13:02:45;13.90;99.90
63260;DHT22;49390;51.380;0.098;2022-11-04T13:05:29;13.90;99.90
63260;DHT22;49390;51.380;0.098;2022-11-04T13:08:27;14.00;99.90
63260;DHT22;49390;51.380;0.098;2022-11-04T13:11:15;14.00;99.90
63260;DHT22;49390;51.380;0.098;2022-11-04T13:16:40;14.00;99.90
63260;DHT22;49390;51.380;0.098;2022-11-04T13:19:27;14.00;99.90
63260;DHT22;49390;51.380;0.098;2022-11-04T13:22:10;14.00;99.90
63260;DHT22;49390;51.380;0.098;2022-11-04T13:24:45;14.00;99.90
63260;DHT22;49390;51.380;0.098;2022-11-04T13:27:20;14.00;99.90
63260;DHT22;49390;51.380;0.098;2022-11-04T13:29:50;14.00;99.90
63260;DHT22;49390;51.380;0.098;2022-11-04T13:32:38;14.00;99.90
63260;DHT22;49390;51.380;0.098;2022-11-04T13:38:04;14.00;99.90
63260;DHT22;49390;51.380;0.098;2022-11-04T13:41:03;14.00;99.90
63260;DHT22;49390;51.380;0.098;2022-11-04T13:43:42;14.10;99.90
63260;DHT22;49390;51.380;0.098;2022-11-04T13:46:20;14.10;99.50
63260;DHT22;49390;51.380;0.098;2022-11-04T13:48:59;14.10;99.20
63260;DHT22;49390;51.380;0.098;2022-11-04T13:51:59;14.10;98.70
63260;DHT22;49390;51.380;0.098;2022-11-04T13:54:32;14.10;98.20
63260;DHT22;49390;51.380;0.098;2022-11-04T13:57:11;14.00;98.20
63260;DHT22;49390;51.380;0.098;2022-11-04T14:00:05;14.00;97.80
63260;DHT22;49390;51.380;0.098;2022-11-04T14:16:01;13.90;96.50
63260;DHT22;49390;51.380;0.098;2022-11-04T14:18:35;13.90;96.70
63260;DHT22;49390;51.380;0.098;2022-11-04T14:21:11;13.90;96.40
63260;DHT22;49390;51.380;0.098;2022-11-04T14:23:45;13.80;96.30
63260;DHT22;49390;51.380;0.098;2022-11-04T14:26:16;13.80;95.60
63260;DHT22;49390;51.380;0.098;2022-11-04T14:28:45;13.80;95.90
63260;DHT22;49390;51.380;0.098;2022-11-04T14:31:40;13.80;95.90
63260;DHT22;49390;51.380;0.098;2022-11-04T14:36:55;13.70;95.60
63260;DHT22;49390;51.380;0.098;2022-11-04T14:39:28;13.70;96.50
63260;DHT22;49390;51.380;0.098;2022-11-04T14:41:59;13.70;97.00
63260;DHT22;49390;51.380;0.098;2022-11-04T14:44:36;13.70;97.50
63260;DHT22;49390;51.380;0.098;2022-11-04T14:47:28;13.70;97.60
63260;DHT22;49390;51.380;0.098;2022-11-04T14:50:04;13.70;97.80
63260;DHT22;49390;51.380;0.098;2022-11-04T14:57:49;13.50;97.00
63260;DHT22;49390;51.380;0.098;2022-11-04T15:00:30;13.40;97.00
63260;DHT22;49390;51.380;0.098;2022-11-04T15:05:46;13.40;97.60
63260;DHT22;49390;51.380;0.098;2022-11-04T15:11:25;13.30;98.20
63260;DHT22;49390;51.380;0.098;2022-11-04T15:14:18;13.20;98.20
63260;DHT22;49390;51.380;0.098;2022-11-04T15:16:56;13.10;98.70
63260;DHT22;49390;51.380;0.098;2022-11-04T15:19:33;13.10;99.00
63260;DHT22;49390;51.380;0.098;2022-11-04T15:22:04;13.00;99.50
63260;DHT22;49390;51.380;0.098;2022-11-04T15:24:34;13.00;99.90
63260;DHT22;49390;51.380;0.098;2022-11-04T15:27:12;12.90;99.90
63260;DHT22;49390;51.380;0.098;2022-11-04T15:29:56;12.80;99.90
63260;DHT22;49390;51.380;0.098;2022-11-04T15:32:24;12.70;99.90
63260;DHT22;49390;51.380;0.098;2022-11-04T15:34:53;12.70;99.90
63260;DHT22;49390;51.380;0.098;2022-11-04T15:37:22;12.60;99.90
63260;DHT22;49390;51.380;0.098;2022-11-04T15:39:54;12.60;99.90
63260;DHT22;49390;51.380;0.098;2022-11-04T15:42:27;12.60;99.90
63260;DHT22;49390;51.380;0.098;2022-11-04T15:48:25;12.50;99.90
63260;DHT22;49390;51.380;0.098;2022-11-04T15:51:19;12.50;99.90
63260;DHT22;49390;51.380;0.098;2022-11-04T15:53:58;12.50;99.90
63260;DHT22;49390;51.380;0.098;2022-11-04T15:56:41;12.40;99.90
63260;DHT22;49390;51.380;0.098;2022-11-04T15:59:15;12.40;99.90
63260;DHT22;49390;51.380;0.098;2022-11-04T16:01:47;12.30;99.90
63260;DHT22;49390;51.380;0.098;2022-11-04T16:04:17;12.20;99.90
63260;DHT22;49390;51.380;0.098;2022-11-04T16:07:19;12.10;99.90
63260;DHT22;49390;51.380;0.098;2022-11-04T16:09:52;12.10;99.90
63260;DHT22;49390;51.380;0.098;2022-11-04T16:14:57;11.90;99.90
63260;DHT22;49390;51.380;0.098;2022-11-04T16:17:27;11.80;99.90
63260;DHT22;49390;51.380;0.098;2022-11-04T16:20:03;11.70;99.90
63260;DHT22;49390;51.380;0.098;2022-11-04T16:22:35;11.60;99.90
63260;DHT22;49390;51.380;0.098;2022-11-04T16:25:17;11.60;99.90
63260;DHT22;49390;51.380;0.098;2022-11-04T16:27:47;11.50;99.90
63260;DHT22;49390;51.380;0.098;2022-11-04T16:30:20;11.50;99.90
63260;DHT22;49390;51.380;0.098;2022-11-04T16:32:52;11.40;99.90
63260;DHT22;49390;51.380;0.098;2022-11-04T16:35:26;11.40;99.90
63260;DHT22;49390;51.380;0.098;2022-11-04T16:37:55;11.40;99.90
63260;DHT22;49390;51.380;0.098;2022-11-04T16:40:24;11.40;99.90
63260;DHT22;49390;51.380;0.098;2022-11-04T16:42:52;11.40;99.90
63260;DHT22;49390;51.380;0.098;2022-11-04T16:45:26;11.40;99.90
63260;DHT22;49390;51.380;0.098;2022-11-04T16:47:56;11.40;99.90
63260;DHT22;49390;51.380;0.098;2022-11-04T16:50:26;11.40;99.90
63260;DHT22;49390;51.380;0.098;2022-11-04T16:52:54;11.40;99.90
63260;DHT22;49390;51.380;0.098;2022-11-04T16:55:24;11.50;99.90
63260;DHT22;49390;51.380;0.098;2022-11-04T16:57:57;11.50;99.90
63260;DHT22;49390;51.380;0.098;2022-11-04T17:00:27;11.50;99.90
63260;DHT22;49390;51.380;0.098;2022-11-04T17:02:56;11.50;99.90
63260;DHT22;49390;51.380;0.098;2022-11-04T17:05:24;11.60;99.90
63260;DHT22;49390;51.380;0.098;2022-11-04T17:07:54;11.60;99.90
63260;DHT22;49390;51.380;0.098;2022-11-04T17:10:33;11.60;99.90
63260;DHT22;49390;51.380;0.098;2022-11-04T17:13:02;11.60;99.90
63260;DHT22;49390;51.380;0.098;2022-11-04T17:15:31;11.60;99.90
63260;DHT22;49390;51.380;0.098;2022-11-04T17:18:00;11.70;99.90
63260;DHT22;49390;51.380;0.098;2022-11-04T17:20:28;11.70;99.90
63260;DHT22;49390;51.380;0.098;2022-11-04T17:22:58;11.70;99.90
63260;DHT22;49390;51.380;0.098;2022-11-04T17:25:28;11.70;99.90
63260;DHT22;49390;51.380;0.098;2022-11-04T17:27:56;11.70;99.90
63260;DHT22;49390;51.380;0.098;2022-11-04T17:30:24;11.70;99.90
63260;DHT22;49390;51.380;0.098;2022-11-04T17:32:52;11.70;99.90
63260;DHT22;49390;51.380;0.098;2022-11-04T17:35:20;11.70;99.90
63260;DHT22;49390;51.380;0.098;2022-11-04T17:37:52;11.70;99.90
63260;DHT22;49390;51.380;0.098;2022-11-04T17:40:22;11.70;99.90
63260;DHT22;49390;51.380;0.098;2022-11-04T17:42:50;11.70;99.90
63260;DHT22;49390;51.380;0.098;2022-11-04T17:45:40;11.70;99.90
63260;DHT22;49390;51.380;0.098;2022-11-04T17:48:09;11.70;99.90
63260;DHT22;49390;51.380;0.098;2022-11-04T17:50:38;11.60;99.90
63260;DHT22;49390;51.380;0.098;2022-11-04T17:53:08;11.60;99.90
63260;DHT22;49390;51.380;0.098;2022-11-04T17:55:38;11.50;99.90
63260;DHT22;49390;51.380;0.098;2022-11-04T17:58:07;11.50;99.90
63260;DHT22;49390;51.380;0.098;2022-11-04T18:00:35;11.40;99.90
63260;DHT22;49390;51.380;0.098;2022-11-04T18:03:04;11.40;99.90
63260;DHT22;49390;51.380;0.098;2022-11-04T18:05:34;11.30;99.90
63260;DHT22;49390;51.380;0.098;2022-11-04T18:08:03;11.30;99.90
63260;DHT22;49390;51.380;0.098;2022-11-04T18:10:32;11.20;99.90
63260;DHT22;49390;51.380;0.098;2022-11-04T18:13:00;11.20;99.90
63260;DHT22;49390;51.380;0.098;2022-11-04T18:15:29;11.10;99.90
63260;DHT22;49390;51.380;0.098;2022-11-04T18:17:57;11.10;99.90
63260;DHT22;49390;51.380;0.098;2022-11-04T18:20:25;11.00;99.90
63260;DHT22;49390;51.380;0.098;2022-11-04T18:22:54;10.90;99.90
63260;DHT22;49390;51.380;0.098;2022-11-04T18:25:22;10.90;99.90
63260;DHT22;49390;51.380;0.098;2022-11-04T18:27:51;10.80;99.90
63260;DHT22;49390;51.380;0.098;2022-11-04T18:30:19;10.80;99.90
63260;DHT22;49390;51.380;0.098;2022-11-04T18:32:47;10.70;99.90
63260;DHT22;49390;51.380;0.098;2022-11-04T18:35:15;10.70;99.90
63260;DHT22;49390;51.380;0.098;2022-11-04T18:37:45;10.70;99.90
63260;DHT22;49390;51.380;0.098;2022-11-04T18:40:15;10.60;99.90
63260;DHT22;49390;51.380;0.098;2022-11-04T18:42:43;10.50;99.90
63260;DHT22;49390;51.380;0.098;2022-11-04T18:45:12;10.50;99.90
63260;DHT22;49390;51.380;0.098;2022-11-04T18:47:39;10.50;99.90